Weather at Dutchess County Airport

Public forecast

Using degrees Fahrenheit for public forecast. Weather courtesy of forecast.io.

Current aviation weather report (METAR) for Dutchess County Airport

Retrieved 2020/09/21 15:53 UTC (33 minutes ago):

KPOU 211553Z VRB05KT 10SM CLR 16/02 A3058 RMK AO2 SLP352 T01560022

Aviation forecast (TAF) for Dutchess County Airport

Retrieved 2020/09/21 12:33 UTC (4 hours ago):

TAF KPOU 211131Z 2112/2212 00000KT P6SM SKC FM211500 35005KT P6SM SKC